Terminal Aerodrome Forecast
Issued by NWS

Home | Current Version | Previous Version | Text Only | Print | Product List | Glossary On
Versions: 1 2 3 4 5 6 7 8 9 10 11 12
000
FTUS42 TJSJ 171100
TAFJMZ
TAF
TJMZ 171131Z 1712/1812 09005KT P6SM FEW030
     FM171330 26010KT P6SM SCT025 BKN040
     FM172230 06006KT P6SM FEW030 SCT070=

USA.gov is the U.S. government's official web portal to all federal, state and local government web resources and services.